Alexander 3 — SW6137 — position and weather

sailwx.info

Track history (hours):
 
Tides and Currents Weather Stations Pressure Air Temp Water Temp Dewpoint Dewpoint Depression Visibility Wind Speed Wind Dir Waves Ship Positions

Alexander 3

Last reported at 2017-Jun-26 10:31 UTC. Time now 2017-Jun-26 10:28 UTC.
Position N 37°57' E 023°36'.

Length 38 m; draft 5.6 m.

Type: Tug. MMSI: 240733000.

Date/timePositionNaut miles runAvg speedWind from/ knotsBaromVisibWave heightAir tempDewpointWater temp
2017-Jun-26 10:31N 37°57' E 023°36'0 0.0
2017-Jun-26 10:01N 37°57' E 023°36'0 0.0
2017-Jun-26 09:31N 37°57' E 023°36'0 0.0
2017-Jun-26 09:01N 37°57' E 023°36'0 0.0
2017-Jun-26 08:31N 37°57' E 023°36'0 0.0
2017-Jun-26 08:01N 37°57' E 023°36'0 0.0
2017-Jun-26 07:31N 37°57' E 023°36'0 0.0
2017-Jun-26 07:01N 37°57' E 023°36'0 0.0
2017-Jun-26 06:31N 37°57' E 023°36'0 0.0
2017-Jun-26 06:01N 37°57' E 023°36'0 0.0
2017-Jun-26 05:31N 37°57' E 023°36'0 0.1
2017-Jun-26 05:00N 37°57' E 023°36'0 0.6
2017-Jun-26 04:31N 37°57' E 023°36'2 3.4
2017-Jun-26 04:01N 37°56' E 023°36'1 1.9
2017-Jun-26 03:30N 37°56' E 023°37'0 0.0
2017-Jun-26 03:00N 37°56' E 023°37'  
2017-Jun-22 14:08N 37°56' E 023°37'0 0.2
2017-Jun-22 13:30N 37°56' E 023°37'1 3.0
2017-Jun-22 13:00N 37°57' E 023°36'0 0.8
2017-Jun-22 12:30N 37°57' E 023°35'1 1.7
2017-Jun-22 12:00N 37°57' E 023°36'0 0.0
2017-Jun-22 11:30N 37°57' E 023°36'0 0.5
2017-Jun-22 11:01N 37°57' E 023°36'0 0.5
2017-Jun-22 10:30N 37°57' E 023°36'0 0.0
2017-Jun-22 10:00N 37°57' E 023°36'0 0.0
2017-Jun-22 09:30N 37°57' E 023°36'0 0.0
2017-Jun-22 09:00N 37°57' E 023°36'0 0.0
2017-Jun-22 08:30N 37°57' E 023°36'0 0.0
2017-Jun-22 08:00N 37°57' E 023°36'0 0.0
2017-Jun-22 07:30N 37°57' E 023°36'0 0.1
2017-Jun-22 07:00N 37°57' E 023°36'0 0.1
2017-Jun-22 06:30N 37°57' E 023°36'0 0.0
2017-Jun-22 06:00N 37°57' E 023°36'1 1.9
2017-Jun-22 05:31N 37°57' E 023°35'2 3.5
2017-Jun-22 05:01N 37°56' E 023°35'2 4.0
2017-Jun-22 04:31N 37°56' E 023°37'0 0.4
2017-Jun-22 04:00N 37°56' E 023°37'0 0.0
2017-Jun-22 03:30N 37°56' E 023°37'0 0.0
2017-Jun-22 03:00N 37°56' E 023°37'0 0.0
2017-Jun-21 11:03N 37°56' E 023°37'0 0.1
2017-Jun-21 11:01N 37°56' E 023°37'0 0.1
2017-Jun-21 10:30N 37°56' E 023°37'0 0.2
2017-Jun-21 10:00N 37°56' E 023°37'0 0.0
2017-Jun-21 09:30N 37°56' E 023°37'0 0.0
2017-Jun-21 09:00N 37°56' E 023°37'0 0.0
2017-Jun-21 08:30N 37°56' E 023°37'0 0.0
2017-Jun-21 08:00N 37°56' E 023°37'1 1.4
2017-Jun-21 07:30N 37°57' E 023°37'0 0.0
2017-Jun-21 07:00N 37°57' E 023°37'0 0.0
2017-Jun-21 06:30N 37°57' E 023°37'0 0.0
2017-Jun-21 06:00N 37°57' E 023°37'0 0.0
2017-Jun-21 05:30N 37°57' E 023°37'1 1.4
2017-Jun-21 05:00N 37°56' E 023°37'0 0.0
2017-Jun-21 04:30N 37°56' E 023°37'0 0.0
2017-Jun-21 04:00N 37°56' E 023°37'0 0.0
2017-Jun-21 03:30N 37°56' E 023°37'0 0.0
2017-Jun-21 03:00N 37°56' E 023°37'0 0.0
2017-Jun-21 02:30N 37°56' E 023°37'0 0.0
2017-Jun-21 02:00N 37°56' E 023°37'0 0.0
2017-Jun-21 01:30N 37°56' E 023°37'0 0.0
2017-Jun-21 01:00N 37°56' E 023°37'0 0.0
2017-Jun-21 00:31N 37°56' E 023°37'0 0.0
2017-Jun-21 00:00N 37°56' E 023°37'0 0.0
2017-Jun-20 23:30N 37°56' E 023°37'0 0.0
2017-Jun-20 23:00N 37°56' E 023°37'0 0.0
2017-Jun-20 22:30N 37°56' E 023°37'0 0.0
2017-Jun-20 22:00N 37°56' E 023°37'0 0.0
2017-Jun-20 21:30N 37°56' E 023°37'0 0.0
2017-Jun-20 21:00N 37°56' E 023°37'0 0.0
2017-Jun-20 20:30N 37°56' E 023°37'0 0.0
2017-Jun-20 20:00N 37°56' E 023°37'1 1.7
2017-Jun-20 19:30N 37°56' E 023°36'5 9.9
2017-Jun-20 19:00N 37°53' E 023°31'5 9.5
2017-Jun-20 18:31N 37°52' E 023°25'5 9.4
2017-Jun-20 18:00N 37°57' E 023°23'2 3.3
2017-Jun-20 17:30N 37°58' E 023°23'0 0.0
2017-Jun-20 17:00N 37°58' E 023°23'1 2.4
2017-Jun-20 16:30N 37°58' E 023°24'0 0.0
2017-Jun-20 16:01N 37°58' E 023°24'0 0.0
2017-Jun-20 15:30N 37°58' E 023°24'0 0.0
2017-Jun-20 15:00N 37°58' E 023°24'0 0.0
2017-Jun-20 14:30N 37°58' E 023°24'0 0.0
2017-Jun-20 13:30N 37°58' E 023°24'0 0.0
2017-Jun-20 13:00N 37°58' E 023°24'0 0.0
2017-Jun-20 12:31N 37°58' E 023°24'0 0.0
2017-Jun-20 12:00N 37°58' E 023°24'0 0.0
2017-Jun-20 11:30N 37°58' E 023°24'0 0.0
2017-Jun-20 11:01N 37°58' E 023°24'0 0.0
2017-Jun-20 10:31N 37°58' E 023°24'0 0.0
2017-Jun-20 10:00N 37°58' E 023°24'0 0.0
2017-Jun-20 09:30N 37°58' E 023°24'0 0.0
2017-Jun-20 09:01N 37°58' E 023°24'0 0.0
2017-Jun-20 08:30N 37°58' E 023°24'0 0.0
2017-Jun-20 08:00N 37°58' E 023°24'0 0.0
2017-Jun-20 07:30N 37°58' E 023°24'0 0.0
2017-Jun-20 07:00N 37°58' E 023°24'0 0.0
2017-Jun-20 06:30N 37°58' E 023°24'0 0.0
2017-Jun-20 06:01N 37°58' E 023°24'0 0.0
2017-Jun-20 05:30N 37°58' E 023°24'0 0.0
2017-Jun-20 05:00N 37°58' E 023°24'0 0.0
2017-Jun-20 04:30N 37°58' E 023°24'0 0.0
2017-Jun-20 04:00N 37°58' E 023°24'0 0.0
2017-Jun-20 03:30N 37°58' E 023°24'0 0.0
2017-Jun-20 03:00N 37°58' E 023°24'0 0.0
2017-Jun-20 02:30N 37°58' E 023°24'0 0.0
2017-Jun-20 02:00N 37°58' E 023°24'0 0.0
2017-Jun-20 01:30N 37°58' E 023°24'0 0.0
2017-Jun-20 01:00N 37°58' E 023°24'0 0.0
2017-Jun-20 00:30N 37°58' E 023°24'0 0.0
2017-Jun-20 00:01N 37°58' E 023°24'0 0.0
2017-Jun-19 23:30N 37°58' E 023°24'0 0.0
2017-Jun-19 23:00N 37°58' E 023°24'0 0.0
2017-Jun-19 22:30N 37°58' E 023°24'0 0.0
2017-Jun-19 22:00N 37°58' E 023°24'0 0.0
2017-Jun-19 21:30N 37°58' E 023°24'0 0.0
2017-Jun-19 21:00N 37°58' E 023°24'0 0.0
2017-Jun-19 20:31N 37°58' E 023°24'0 0.0
2017-Jun-19 20:00N 37°58' E 023°24'0 0.0
2017-Jun-19 19:30N 37°58' E 023°24'0 0.0
2017-Jun-19 19:01N 37°58' E 023°24'0 0.0
2017-Jun-19 18:31N 37°58' E 023°24'0 0.0
2017-Jun-19 18:01N 37°58' E 023°24'0 0.0
2017-Jun-19 17:30N 37°58' E 023°24'0 0.0
2017-Jun-19 17:00N 37°58' E 023°24'0 0.0
2017-Jun-19 16:30N 37°58' E 023°24'0 0.0
2017-Jun-19 16:00N 37°58' E 023°24'0 0.0
2017-Jun-19 15:30N 37°58' E 023°24'0 0.0
2017-Jun-19 15:00N 37°58' E 023°24'0 0.0
2017-Jun-19 14:30N 37°58' E 023°24'0 0.0
2017-Jun-19 13:31N 37°58' E 023°24'0 0.0
2017-Jun-19 13:00N 37°58' E 023°24'0 0.0
2017-Jun-19 12:30N 37°58' E 023°24'0 0.0
2017-Jun-19 12:00N 37°58' E 023°24'0 0.0
2017-Jun-19 11:30N 37°58' E 023°24'0 0.0
2017-Jun-19 11:00N 37°58' E 023°24'0 0.0
2017-Jun-19 10:30N 37°58' E 023°24'0 0.0
2017-Jun-19 10:00N 37°58' E 023°24'0 0.0
2017-Jun-19 09:30N 37°58' E 023°24'0 0.0
2017-Jun-19 09:00N 37°58' E 023°24'0 0.0
2017-Jun-19 08:30N 37°58' E 023°24'0 0.0
2017-Jun-19 08:00N 37°58' E 023°24'0 0.0
2017-Jun-19 07:30N 37°58' E 023°24'0 0.0
2017-Jun-19 07:00N 37°58' E 023°24'1 2.3
2017-Jun-19 06:30N 37°58' E 023°23'0 0.2
2017-Jun-19 06:01N 37°58' E 023°23'1 1.2
2017-Jun-19 05:30N 37°58' E 023°23'2 4.5
2017-Jun-19 05:00N 37°55' E 023°22'4 7.2
2017-Jun-19 04:30N 37°52' E 023°25'4 7.8
2017-Jun-19 04:00N 37°53' E 023°30'4 8.6
2017-Jun-19 03:30N 37°55' E 023°34'2 5.0
2017-Jun-19 03:00N 37°57' E 023°36'0 0.0
2017-Jun-19 02:30N 37°57' E 023°36'0 0.0
2017-Jun-19 02:00N 37°57' E 023°36'0 0.0
2017-Jun-19 01:31N 37°57' E 023°36'1 1.6
2017-Jun-19 01:00N 37°57' E 023°35'1 1.6
2017-Jun-19 00:30N 37°57' E 023°36'0 0.0
2017-Jun-19 00:00N 37°57' E 023°36'0 0.0
2017-Jun-18 23:30N 37°57' E 023°36'0 0.0
2017-Jun-18 23:00N 37°57' E 023°36'0 0.0
2017-Jun-18 22:30N 37°57' E 023°36'0 0.0
2017-Jun-18 22:00N 37°57' E 023°36'0 0.0
2017-Jun-18 21:30N 37°57' E 023°36'0 0.0
2017-Jun-18 21:00N 37°57' E 023°36'0 0.0
2017-Jun-18 20:30N 37°57' E 023°36'0 0.2
2017-Jun-18 20:00N 37°57' E 023°36'1 2.2
2017-Jun-18 19:30N 37°57' E 023°35'1 1.8
2017-Jun-18 19:00N 37°57' E 023°36'1 1.2
2017-Jun-18 18:30N 37°57' E 023°36'0 0.0
2017-Jun-18 18:00N 37°57' E 023°36'0 0.0
2017-Jun-18 17:30N 37°57' E 023°36'0 0.0
2017-Jun-18 17:00N 37°57' E 023°36'0 0.0
2017-Jun-18 16:30N 37°57' E 023°36'0 0.0
2017-Jun-18 16:00N 37°57' E 023°36'0 0.0
2017-Jun-18 15:30N 37°57' E 023°36'0 0.0
2017-Jun-18 15:00N 37°57' E 023°36'0 0.0
2017-Jun-18 14:00N 37°57' E 023°36'0 0.0
2017-Jun-18 13:30N 37°57' E 023°36'0 0.0
2017-Jun-18 13:00N 37°57' E 023°36'0 0.0
2017-Jun-18 12:30N 37°57' E 023°36'1 1.8
2017-Jun-18 12:00N 37°57' E 023°35'0 0.3
2017-Jun-18 11:30N 37°57' E 023°35'1 1.7
2017-Jun-18 11:00N 37°57' E 023°36'2 3.5
2017-Jun-18 10:30N 37°58' E 023°34'0 0.6
2017-Jun-18 10:00N 37°57' E 023°34'0 0.6
2017-Jun-18 09:30N 37°58' E 023°34'0 0.0
2017-Jun-18 09:00N 37°58' E 023°34'2 3.5
2017-Jun-18 08:31N 37°57' E 023°36'0 0.0
2017-Jun-18 08:00N 37°57' E 023°36'1 1.7
2017-Jun-18 07:31N 37°57' E 023°35'0 0.1
2017-Jun-18 07:00N 37°57' E 023°35'1 2.8
2017-Jun-18 06:30N 37°56' E 023°36'2 3.4
2017-Jun-18 06:00N 37°56' E 023°38'0 0.0
2017-Jun-18 05:30N 37°56' E 023°38'0 0.0
2017-Jun-18 05:00N 37°56' E 023°38'0 0.0
2017-Jun-18 04:30N 37°56' E 023°38'0 0.0
2017-Jun-18 04:00N 37°56' E 023°38'0 0.0
2017-Jun-18 03:30N 37°56' E 023°38'0 0.0
2017-Jun-18 03:00N 37°56' E 023°38'0 0.0
2017-Jun-17 08:45N 37°56' E 023°38'1 2.5
2017-Jun-17 08:31N 37°56' E 023°37'1 2.7
2017-Jun-17 08:00N 37°57' E 023°36'0 0.0
2017-Jun-17 07:31N 37°57' E 023°36'0 0.0
2017-Jun-17 07:00N 37°57' E 023°36'0 0.0
2017-Jun-17 06:31N 37°57' E 023°36'0 0.0
2017-Jun-17 06:01N 37°57' E 023°36'0 0.0
2017-Jun-17 05:30N 37°57' E 023°36'1 1.7
2017-Jun-17 05:01N 37°57' E 023°35'0 0.1
2017-Jun-17 04:30N 37°57' E 023°35'1 2.5
2017-Jun-17 04:00N 37°57' E 023°36'0 0.0
2017-Jun-17 03:30N 37°57' E 023°36'0 0.0
2017-Jun-17 03:01N 37°57' E 023°36'0 0.0
2017-Jun-17 02:31N 37°57' E 023°36'0 0.0
2017-Jun-17 02:00N 37°57' E 023°36'0 0.0
2017-Jun-17 01:30N 37°57' E 023°36'0 0.0
2017-Jun-17 01:01N 37°57' E 023°36'0 0.0
2017-Jun-17 00:30N 37°57' E 023°36'0 0.0
2017-Jun-17 00:00N 37°57' E 023°36'0 0.0
2017-Jun-16 23:30N 37°57' E 023°36'0 0.0
2017-Jun-16 23:00N 37°57' E 023°36'0 0.0
2017-Jun-16 22:30N 37°57' E 023°36'0 0.0
2017-Jun-16 22:01N 37°57' E 023°36'0 0.0
2017-Jun-16 21:30N 37°57' E 023°36'1 1.8
2017-Jun-16 21:00N 37°57' E 023°35'0 0.4
2017-Jun-16 20:30N 37°57' E 023°35'0 0.5
2017-Jun-16 20:01N 37°57' E 023°35'1 1.7
2017-Jun-16 19:30N 37°57' E 023°36'0 0.0
2017-Jun-16 19:00N 37°57' E 023°36'0 0.0
2017-Jun-16 18:31N 37°57' E 023°36'0 0.7
2017-Jun-16 18:00N 37°57' E 023°36'0 0.3
2017-Jun-16 17:30N 37°57' E 023°36'0 0.5
2017-Jun-16 17:00N 37°57' E 023°36'0 0.0
2017-Jun-16 16:31N 37°57' E 023°36'0 0.0
2017-Jun-16 16:00N 37°57' E 023°36'0 0.0
2017-Jun-16 15:30N 37°57' E 023°36'0 0.0
2017-Jun-16 15:01N 37°57' E 023°36'1 1.0
2017-Jun-16 14:31N 37°57' E 023°36'1 0.5
2017-Jun-16 13:29N 37°57' E 023°36'0 0.0
2017-Jun-16 13:00N 37°57' E 023°36'0 0.0
2017-Jun-16 12:30N 37°57' E 023°36'0 0.0
2017-Jun-16 12:00N 37°57' E 023°36'0 0.0
2017-Jun-16 11:31N 37°57' E 023°36'0 0.0
2017-Jun-16 11:00N 37°57' E 023°36'0 0.5
2017-Jun-16 10:31N 37°57' E 023°36'  
Track history (hours):
 
Tides and Currents Weather Stations Pressure Air Temp Water Temp Dewpoint Dewpoint Depression Visibility Wind Speed Wind Dir Waves Ship Positions

Alexander 3

Last reported at 2017-Jun-26 10:31 UTC. Time now 2017-Jun-26 10:28 UTC.
Position N 37°57' E 023°36'.

Length 38 m; draft 5.6 m.

Type: Tug. MMSI: 240733000.

Date/timePositionNaut miles runAvg speedWind from/ knotsBaromVisibWave heightAir tempDewpointWater temp
2017-Jun-26 10:31N 37°57' E 023°36'0 0.0
2017-Jun-26 10:01N 37°57' E 023°36'0 0.0
2017-Jun-26 09:31N 37°57' E 023°36'0 0.0
2017-Jun-26 09:01N 37°57' E 023°36'0 0.0
2017-Jun-26 08:31N 37°57' E 023°36'0 0.0
2017-Jun-26 08:01N 37°57' E 023°36'0 0.0
2017-Jun-26 07:31N 37°57' E 023°36'0 0.0
2017-Jun-26 07:01N 37°57' E 023°36'0 0.0
2017-Jun-26 06:31N 37°57' E 023°36'0 0.0
2017-Jun-26 06:01N 37°57' E 023°36'0 0.0
2017-Jun-26 05:31N 37°57' E 023°36'0 0.1
2017-Jun-26 05:00N 37°57' E 023°36'0 0.6
2017-Jun-26 04:31N 37°57' E 023°36'2 3.4
2017-Jun-26 04:01N 37°56' E 023°36'1 1.9
2017-Jun-26 03:30N 37°56' E 023°37'0 0.0
2017-Jun-26 03:00N 37°56' E 023°37'  
2017-Jun-22 14:08N 37°56' E 023°37'0 0.2
2017-Jun-22 13:30N 37°56' E 023°37'1 3.0
2017-Jun-22 13:00N 37°57' E 023°36'0 0.8
2017-Jun-22 12:30N 37°57' E 023°35'1 1.7
2017-Jun-22 12:00N 37°57' E 023°36'0 0.0
2017-Jun-22 11:30N 37°57' E 023°36'0 0.5
2017-Jun-22 11:01N 37°57' E 023°36'0 0.5
2017-Jun-22 10:30N 37°57' E 023°36'0 0.0
2017-Jun-22 10:00N 37°57' E 023°36'0 0.0
2017-Jun-22 09:30N 37°57' E 023°36'0 0.0
2017-Jun-22 09:00N 37°57' E 023°36'0 0.0
2017-Jun-22 08:30N 37°57' E 023°36'0 0.0
2017-Jun-22 08:00N 37°57' E 023°36'0 0.0
2017-Jun-22 07:30N 37°57' E 023°36'0 0.1
2017-Jun-22 07:00N 37°57' E 023°36'0 0.1
2017-Jun-22 06:30N 37°57' E 023°36'0 0.0
2017-Jun-22 06:00N 37°57' E 023°36'1 1.9
2017-Jun-22 05:31N 37°57' E 023°35'2 3.5
2017-Jun-22 05:01N 37°56' E 023°35'2 4.0
2017-Jun-22 04:31N 37°56' E 023°37'0 0.4
2017-Jun-22 04:00N 37°56' E 023°37'0 0.0
2017-Jun-22 03:30N 37°56' E 023°37'0 0.0
2017-Jun-22 03:00N 37°56' E 023°37'0 0.0
2017-Jun-21 11:03N 37°56' E 023°37'0 0.1
2017-Jun-21 11:01N 37°56' E 023°37'0 0.1
2017-Jun-21 10:30N 37°56' E 023°37'0 0.2
2017-Jun-21 10:00N 37°56' E 023°37'0 0.0
2017-Jun-21 09:30N 37°56' E 023°37'0 0.0
2017-Jun-21 09:00N 37°56' E 023°37'0 0.0
2017-Jun-21 08:30N 37°56' E 023°37'0 0.0
2017-Jun-21 08:00N 37°56' E 023°37'1 1.4
2017-Jun-21 07:30N 37°57' E 023°37'0 0.0
2017-Jun-21 07:00N 37°57' E 023°37'0 0.0
2017-Jun-21 06:30N 37°57' E 023°37'0 0.0
2017-Jun-21 06:00N 37°57' E 023°37'0 0.0
2017-Jun-21 05:30N 37°57' E 023°37'1 1.4
2017-Jun-21 05:00N 37°56' E 023°37'0 0.0
2017-Jun-21 04:30N 37°56' E 023°37'0 0.0
2017-Jun-21 04:00N 37°56' E 023°37'0 0.0
2017-Jun-21 03:30N 37°56' E 023°37'0 0.0
2017-Jun-21 03:00N 37°56' E 023°37'0 0.0
2017-Jun-21 02:30N 37°56' E 023°37'0 0.0
2017-Jun-21 02:00N 37°56' E 023°37'0 0.0
2017-Jun-21 01:30N 37°56' E 023°37'0 0.0
2017-Jun-21 01:00N 37°56' E 023°37'0 0.0
2017-Jun-21 00:31N 37°56' E 023°37'0 0.0
2017-Jun-21 00:00N 37°56' E 023°37'0 0.0
2017-Jun-20 23:30N 37°56' E 023°37'0 0.0
2017-Jun-20 23:00N 37°56' E 023°37'0 0.0
2017-Jun-20 22:30N 37°56' E 023°37'0 0.0
2017-Jun-20 22:00N 37°56' E 023°37'0 0.0
2017-Jun-20 21:30N 37°56' E 023°37'0 0.0
2017-Jun-20 21:00N 37°56' E 023°37'0 0.0
2017-Jun-20 20:30N 37°56' E 023°37'0 0.0
2017-Jun-20 20:00N 37°56' E 023°37'1 1.7
2017-Jun-20 19:30N 37°56' E 023°36'5 9.9
2017-Jun-20 19:00N 37°53' E 023°31'5 9.5
2017-Jun-20 18:31N 37°52' E 023°25'5 9.4
2017-Jun-20 18:00N 37°57' E 023°23'2 3.3
2017-Jun-20 17:30N 37°58' E 023°23'0 0.0
2017-Jun-20 17:00N 37°58' E 023°23'1 2.4
2017-Jun-20 16:30N 37°58' E 023°24'0 0.0
2017-Jun-20 16:01N 37°58' E 023°24'0 0.0
2017-Jun-20 15:30N 37°58' E 023°24'0 0.0
2017-Jun-20 15:00N 37°58' E 023°24'0 0.0
2017-Jun-20 14:30N 37°58' E 023°24'0 0.0
2017-Jun-20 13:30N 37°58' E 023°24'0 0.0
2017-Jun-20 13:00N 37°58' E 023°24'0 0.0
2017-Jun-20 12:31N 37°58' E 023°24'0 0.0
2017-Jun-20 12:00N 37°58' E 023°24'0 0.0
2017-Jun-20 11:30N 37°58' E 023°24'0 0.0
2017-Jun-20 11:01N 37°58' E 023°24'0 0.0
2017-Jun-20 10:31N 37°58' E 023°24'0 0.0
2017-Jun-20 10:00N 37°58' E 023°24'0 0.0
2017-Jun-20 09:30N 37°58' E 023°24'0 0.0
2017-Jun-20 09:01N 37°58' E 023°24'0 0.0
2017-Jun-20 08:30N 37°58' E 023°24'0 0.0
2017-Jun-20 08:00N 37°58' E 023°24'0 0.0
2017-Jun-20 07:30N 37°58' E 023°24'0 0.0
2017-Jun-20 07:00N 37°58' E 023°24'0 0.0
2017-Jun-20 06:30N 37°58' E 023°24'0 0.0
2017-Jun-20 06:01N 37°58' E 023°24'0 0.0
2017-Jun-20 05:30N 37°58' E 023°24'0 0.0
2017-Jun-20 05:00N 37°58' E 023°24'0 0.0
2017-Jun-20 04:30N 37°58' E 023°24'0 0.0
2017-Jun-20 04:00N 37°58' E 023°24'0 0.0
2017-Jun-20 03:30N 37°58' E 023°24'0 0.0
2017-Jun-20 03:00N 37°58' E 023°24'0 0.0
2017-Jun-20 02:30N 37°58' E 023°24'0 0.0
2017-Jun-20 02:00N 37°58' E 023°24'0 0.0
2017-Jun-20 01:30N 37°58' E 023°24'0 0.0
2017-Jun-20 01:00N 37°58' E 023°24'0 0.0
2017-Jun-20 00:30N 37°58' E 023°24'0 0.0
2017-Jun-20 00:01N 37°58' E 023°24'0 0.0
2017-Jun-19 23:30N 37°58' E 023°24'0 0.0
2017-Jun-19 23:00N 37°58' E 023°24'0 0.0
2017-Jun-19 22:30N 37°58' E 023°24'0 0.0
2017-Jun-19 22:00N 37°58' E 023°24'0 0.0
2017-Jun-19 21:30N 37°58' E 023°24'0 0.0
2017-Jun-19 21:00N 37°58' E 023°24'0 0.0
2017-Jun-19 20:31N 37°58' E 023°24'0 0.0
2017-Jun-19 20:00N 37°58' E 023°24'0 0.0
2017-Jun-19 19:30N 37°58' E 023°24'0 0.0
2017-Jun-19 19:01N 37°58' E 023°24'0 0.0
2017-Jun-19 18:31N 37°58' E 023°24'0 0.0
2017-Jun-19 18:01N 37°58' E 023°24'0 0.0
2017-Jun-19 17:30N 37°58' E 023°24'0 0.0
2017-Jun-19 17:00N 37°58' E 023°24'0 0.0
2017-Jun-19 16:30N 37°58' E 023°24'0 0.0
2017-Jun-19 16:00N 37°58' E 023°24'0 0.0
2017-Jun-19 15:30N 37°58' E 023°24'0 0.0
2017-Jun-19 15:00N 37°58' E 023°24'0 0.0
2017-Jun-19 14:30N 37°58' E 023°24'0 0.0
2017-Jun-19 13:31N 37°58' E 023°24'0 0.0
2017-Jun-19 13:00N 37°58' E 023°24'0 0.0
2017-Jun-19 12:30N 37°58' E 023°24'0 0.0
2017-Jun-19 12:00N 37°58' E 023°24'0 0.0
2017-Jun-19 11:30N 37°58' E 023°24'0 0.0
2017-Jun-19 11:00N 37°58' E 023°24'0 0.0
2017-Jun-19 10:30N 37°58' E 023°24'0 0.0
2017-Jun-19 10:00N 37°58' E 023°24'0 0.0
2017-Jun-19 09:30N 37°58' E 023°24'0 0.0
2017-Jun-19 09:00N 37°58' E 023°24'0 0.0
2017-Jun-19 08:30N 37°58' E 023°24'0 0.0
2017-Jun-19 08:00N 37°58' E 023°24'0 0.0
2017-Jun-19 07:30N 37°58' E 023°24'0 0.0
2017-Jun-19 07:00N 37°58' E 023°24'1 2.3
2017-Jun-19 06:30N 37°58' E 023°23'0 0.2
2017-Jun-19 06:01N 37°58' E 023°23'1 1.2
2017-Jun-19 05:30N 37°58' E 023°23'2 4.5
2017-Jun-19 05:00N 37°55' E 023°22'4 7.2
2017-Jun-19 04:30N 37°52' E 023°25'4 7.8
2017-Jun-19 04:00N 37°53' E 023°30'4 8.6
2017-Jun-19 03:30N 37°55' E 023°34'2 5.0
2017-Jun-19 03:00N 37°57' E 023°36'0 0.0
2017-Jun-19 02:30N 37°57' E 023°36'0 0.0
2017-Jun-19 02:00N 37°57' E 023°36'0 0.0
2017-Jun-19 01:31N 37°57' E 023°36'1 1.6
2017-Jun-19 01:00N 37°57' E 023°35'1 1.6
2017-Jun-19 00:30N 37°57' E 023°36'0 0.0
2017-Jun-19 00:00N 37°57' E 023°36'0 0.0
2017-Jun-18 23:30N 37°57' E 023°36'0 0.0
2017-Jun-18 23:00N 37°57' E 023°36'0 0.0
2017-Jun-18 22:30N 37°57' E 023°36'0 0.0
2017-Jun-18 22:00N 37°57' E 023°36'0 0.0
2017-Jun-18 21:30N 37°57' E 023°36'0 0.0
2017-Jun-18 21:00N 37°57' E 023°36'0 0.0
2017-Jun-18 20:30N 37°57' E 023°36'0 0.2
2017-Jun-18 20:00N 37°57' E 023°36'1 2.2
2017-Jun-18 19:30N 37°57' E 023°35'1 1.8
2017-Jun-18 19:00N 37°57' E 023°36'1 1.2
2017-Jun-18 18:30N 37°57' E 023°36'0 0.0
2017-Jun-18 18:00N 37°57' E 023°36'0 0.0
2017-Jun-18 17:30N 37°57' E 023°36'0 0.0
2017-Jun-18 17:00N 37°57' E 023°36'0 0.0
2017-Jun-18 16:30N 37°57' E 023°36'0 0.0
2017-Jun-18 16:00N 37°57' E 023°36'0 0.0
2017-Jun-18 15:30N 37°57' E 023°36'0 0.0
2017-Jun-18 15:00N 37°57' E 023°36'0 0.0
2017-Jun-18 14:00N 37°57' E 023°36'0 0.0
2017-Jun-18 13:30N 37°57' E 023°36'0 0.0
2017-Jun-18 13:00N 37°57' E 023°36'0 0.0
2017-Jun-18 12:30N 37°57' E 023°36'1 1.8
2017-Jun-18 12:00N 37°57' E 023°35'0 0.3
2017-Jun-18 11:30N 37°57' E 023°35'1 1.7
2017-Jun-18 11:00N 37°57' E 023°36'2 3.5
2017-Jun-18 10:30N 37°58' E 023°34'0 0.6
2017-Jun-18 10:00N 37°57' E 023°34'0 0.6
2017-Jun-18 09:30N 37°58' E 023°34'0 0.0
2017-Jun-18 09:00N 37°58' E 023°34'2 3.5
2017-Jun-18 08:31N 37°57' E 023°36'0 0.0
2017-Jun-18 08:00N 37°57' E 023°36'1 1.7
2017-Jun-18 07:31N 37°57' E 023°35'0 0.1
2017-Jun-18 07:00N 37°57' E 023°35'1 2.8
2017-Jun-18 06:30N 37°56' E 023°36'2 3.4
2017-Jun-18 06:00N 37°56' E 023°38'0 0.0
2017-Jun-18 05:30N 37°56' E 023°38'0 0.0
2017-Jun-18 05:00N 37°56' E 023°38'0 0.0
2017-Jun-18 04:30N 37°56' E 023°38'0 0.0
2017-Jun-18 04:00N 37°56' E 023°38'0 0.0
2017-Jun-18 03:30N 37°56' E 023°38'0 0.0
2017-Jun-18 03:00N 37°56' E 023°38'0 0.0
2017-Jun-17 08:45N 37°56' E 023°38'1 2.5
2017-Jun-17 08:31N 37°56' E 023°37'1 2.7
2017-Jun-17 08:00N 37°57' E 023°36'0 0.0
2017-Jun-17 07:31N 37°57' E 023°36'0 0.0
2017-Jun-17 07:00N 37°57' E 023°36'0 0.0
2017-Jun-17 06:31N 37°57' E 023°36'0 0.0
2017-Jun-17 06:01N 37°57' E 023°36'0 0.0
2017-Jun-17 05:30N 37°57' E 023°36'1 1.7
2017-Jun-17 05:01N 37°57' E 023°35'0 0.1
2017-Jun-17 04:30N 37°57' E 023°35'1 2.5
2017-Jun-17 04:00N 37°57' E 023°36'0 0.0
2017-Jun-17 03:30N 37°57' E 023°36'0 0.0
2017-Jun-17 03:01N 37°57' E 023°36'0 0.0
2017-Jun-17 02:31N 37°57' E 023°36'0 0.0
2017-Jun-17 02:00N 37°57' E 023°36'0 0.0
2017-Jun-17 01:30N 37°57' E 023°36'0 0.0
2017-Jun-17 01:01N 37°57' E 023°36'0 0.0
2017-Jun-17 00:30N 37°57' E 023°36'0 0.0
2017-Jun-17 00:00N 37°57' E 023°36'0 0.0
2017-Jun-16 23:30N 37°57' E 023°36'0 0.0
2017-Jun-16 23:00N 37°57' E 023°36'0 0.0
2017-Jun-16 22:30N 37°57' E 023°36'0 0.0
2017-Jun-16 22:01N 37°57' E 023°36'0 0.0
2017-Jun-16 21:30N 37°57' E 023°36'1 1.8
2017-Jun-16 21:00N 37°57' E 023°35'0 0.4
2017-Jun-16 20:30N 37°57' E 023°35'0 0.5
2017-Jun-16 20:01N 37°57' E 023°35'1 1.7
2017-Jun-16 19:30N 37°57' E 023°36'0 0.0
2017-Jun-16 19:00N 37°57' E 023°36'0 0.0
2017-Jun-16 18:31N 37°57' E 023°36'0 0.7
2017-Jun-16 18:00N 37°57' E 023°36'0 0.3
2017-Jun-16 17:30N 37°57' E 023°36'0 0.5
2017-Jun-16 17:00N 37°57' E 023°36'0 0.0
2017-Jun-16 16:31N 37°57' E 023°36'0 0.0
2017-Jun-16 16:00N 37°57' E 023°36'0 0.0
2017-Jun-16 15:30N 37°57' E 023°36'0 0.0
2017-Jun-16 15:01N 37°57' E 023°36'1 1.0
2017-Jun-16 14:31N 37°57' E 023°36'1 0.5
2017-Jun-16 13:29N 37°57' E 023°36'0 0.0
2017-Jun-16 13:00N 37°57' E 023°36'0 0.0
2017-Jun-16 12:30N 37°57' E 023°36'0 0.0
2017-Jun-16 12:00N 37°57' E 023°36'0 0.0
2017-Jun-16 11:31N 37°57' E 023°36'0 0.0
2017-Jun-16 11:00N 37°57' E 023°36'0 0.5
2017-Jun-16 10:31N 37°57' E 023°36'  

Dump ship's entire track history